Time;durP1;ratioP1;P1;durP2;ratioP2;P2;SDS_P1;SDS_P2;PMS_P1;PMS_P2;Temp;Humidity;BMP_temperature;BMP_pressure;BME280_temperature;BME280_humidity;BME280_pressure;Samples;Min_cycle;Max_cycle;Signal;HPM_P1;HPM_P2
2021/06/26 00:01:38;;;;;;;11.50;10.47;;;;;;;19.52;78.62;96648.19;5095303;28;20408;-60
2021/06/26 00:04:05;;;;;;;9.47;8.57;;;;;;;19.57;78.64;96647.38;5094612;28;20193;-60
2021/06/26 00:06:33;;;;;;;10.77;9.80;;;;;;;19.58;79.50;96644.41;5085044;28;20599;-59
2021/06/26 00:08:58;;;;;;;10.37;9.23;;;;;;;19.58;79.83;96636.41;5083636;28;20440;-60
2021/06/26 00:11:24;;;;;;;10.37;9.50;;;;;;;19.58;80.72;96636.41;5075777;28;20891;-60
2021/06/26 00:13:50;;;;;;;10.20;9.30;;;;;;;19.59;81.71;96646.00;5074893;28;20190;-60
2021/06/26 00:16:15;;;;;;;10.90;9.90;;;;;;;19.59;81.79;96640.66;5075038;28;20408;-60
2021/06/26 00:18:41;;;;;;;11.10;10.17;;;;;;;19.53;82.27;96646.31;5075142;28;20246;-60
2021/06/26 00:21:06;;;;;;;11.73;10.60;;;;;;;19.46;82.89;96650.06;5075006;28;20190;-60
2021/06/26 00:23:31;;;;;;;11.20;10.20;;;;;;;19.40;83.04;96648.50;5090882;28;20213;-60
2021/06/26 00:25:57;;;;;;;10.50;9.20;;;;;;;19.40;83.32;96642.38;5081098;28;20230;-60
2021/06/26 00:28:22;;;;;;;9.47;8.57;;;;;;;19.37;83.96;96632.25;5092156;28;20261;-60
2021/06/26 00:30:47;;;;;;;10.23;9.23;;;;;;;19.38;83.58;96628.53;5094975;28;20617;-60
2021/06/26 00:33:13;;;;;;;10.43;9.60;;;;;;;19.46;83.59;96634.06;5094596;28;20225;-60
2021/06/26 00:35:38;;;;;;;9.87;9.07;;;;;;;19.54;82.76;96638.03;5095036;28;20231;-60
2021/06/26 00:38:04;;;;;;;10.27;9.27;;;;;;;19.46;83.52;96627.94;5094741;28;20178;-60
2021/06/26 00:40:29;;;;;;;9.90;9.10;;;;;;;19.49;83.28;96620.19;5094691;28;20227;-60
2021/06/26 00:42:54;;;;;;;10.07;9.10;;;;;;;19.49;83.68;96614.84;5060301;28;20220;-60
2021/06/26 00:45:20;;;;;;;10.13;9.23;;;;;;;19.52;83.10;96608.19;5092743;28;20205;-60
2021/06/26 00:47:46;;;;;;;9.07;8.13;;;;;;;19.49;82.78;96619.41;5094733;28;20289;-60
2021/06/26 00:50:14;;;;;;;10.37;9.53;;;;;;;19.44;83.18;96606.09;5094604;28;20162;-60
2021/06/26 00:52:39;;;;;;;9.63;8.73;;;;;;;19.43;83.37;96609.84;5094319;28;20170;-60
2021/06/26 00:55:06;;;;;;;9.47;8.53;;;;;;;19.44;83.38;96604.22;5094785;28;20447;-60
2021/06/26 00:57:33;;;;;;;10.27;9.47;;;;;;;19.45;82.93;96611.16;5083959;28;20163;-60
2021/06/26 01:00:04;;;;;;;9.47;8.57;;;;;;;19.48;82.38;96601.81;5090253;28;20416;-60
2021/06/26 01:02:29;;;;;;;8.53;7.80;;;;;;;19.40;82.56;96602.41;5094064;28;20465;-60
2021/06/26 01:04:54;;;;;;;10.60;9.70;;;;;;;19.41;82.92;96599.47;5094232;28;20829;-60
2021/06/26 01:07:20;;;;;;;9.17;8.43;;;;;;;19.40;82.56;96599.75;5094337;28;20193;-60
2021/06/26 01:09:45;;;;;;;10.20;9.27;;;;;;;19.29;82.47;96603.50;5094361;28;20623;-60
2021/06/26 01:12:11;;;;;;;8.63;7.87;;;;;;;19.27;82.43;96600.31;5090448;28;20166;-60
2021/06/26 01:14:36;;;;;;;9.67;8.87;;;;;;;19.24;82.63;96606.97;5086831;28;20216;-60
2021/06/26 01:17:07;;;;;;;9.57;8.70;;;;;;;19.26;82.22;96609.34;5094022;28;20181;-60
2021/06/26 01:19:32;;;;;;;11.03;10.03;;;;;;;19.27;81.98;96602.97;5094178;28;20166;-60
2021/06/26 01:22:01;;;;;;;12.60;8.90;;;;;;;19.29;81.72;96598.16;5093668;28;20415;-60
2021/06/26 01:24:26;;;;;;;9.60;8.80;;;;;;;19.29;81.38;96603.50;5093969;28;20182;-60
2021/06/26 01:26:57;;;;;;;9.40;8.60;;;;;;;19.20;82.27;96603.25;5089361;28;20539;-60
2021/06/26 01:29:23;;;;;;;9.63;8.83;;;;;;;19.13;83.15;96600.09;5073239;28;20658;-59
2021/06/26 01:31:48;;;;;;;10.50;8.80;;;;;;;19.18;82.55;96596.63;5073396;28;20496;-60
2021/06/26 01:34:14;;;;;;;9.13;8.23;;;;;;;19.23;82.68;96599.25;5073681;28;20630;-60
2021/06/26 01:36:39;;;;;;;9.87;8.87;;;;;;;19.30;82.20;96605.06;5073606;28;20177;-60
2021/06/26 01:39:04;;;;;;;9.80;9.00;;;;;;;19.09;82.16;96595.59;5073538;28;20185;-60
2021/06/26 01:41:32;;;;;;;9.27;8.47;;;;;;;19.17;81.72;96600.34;5076141;28;20189;-60
2021/06/26 01:43:58;;;;;;;9.73;8.80;;;;;;;19.16;81.68;96601.41;5084232;28;20263;-60
2021/06/26 01:46:23;;;;;;;8.70;8.00;;;;;;;19.15;81.58;96603.28;5093716;28;20942;-60
2021/06/26 01:48:48;;;;;;;8.80;8.17;;;;;;;19.16;82.01;96599.56;5090718;28;20234;-60
2021/06/26 01:51:14;;;;;;;9.30;8.57;;;;;;;19.19;81.88;96592.88;5073281;28;20710;-60
2021/06/26 01:53:39;;;;;;;8.43;7.70;;;;;;;19.22;81.65;96587.78;5081538;28;20186;-60
2021/06/26 01:56:05;;;;;;;9.10;8.30;;;;;;;19.23;81.60;96581.41;5093569;28;20166;-60
2021/06/26 01:58:31;;;;;;;8.90;8.20;;;;;;;19.18;82.13;96588.63;5075482;28;20175;-60
2021/06/26 02:00:56;;;;;;;9.13;8.33;;;;;;;19.24;82.03;96580.31;5073358;28;20496;-60
2021/06/26 02:03:22;;;;;;;9.20;8.50;;;;;;;19.26;81.83;96583.50;5072842;28;20679;-60
2021/06/26 02:05:47;;;;;;;9.10;8.30;;;;;;;19.24;81.78;96582.22;5081317;28;20171;-60
2021/06/26 02:08:12;;;;;;;8.50;7.70;;;;;;;19.07;82.35;96581.75;5091748;28;20181;-60
2021/06/26 02:10:38;;;;;;;9.00;8.20;;;;;;;19.09;81.99;96592.94;5093468;28;20175;-60
2021/06/26 02:13:03;;;;;;;9.70;8.27;;;;;;;19.02;82.11;96587.88;5093017;28;20602;-60
2021/06/26 02:15:29;;;;;;;8.70;8.00;;;;;;;19.11;81.85;96586.25;5093369;28;20691;-60
2021/06/26 02:17:55;;;;;;;8.50;7.70;;;;;;;18.93;83.10;96594.06;5093499;28;20183;-59
2021/06/26 02:20:20;;;;;;;8.87;8.17;;;;;;;18.98;83.51;96588.72;5093190;28;20404;-60
2021/06/26 02:22:46;;;;;;;8.93;8.03;;;;;;;19.07;83.22;96593.22;5080445;28;20530;-60
2021/06/26 02:25:13;;;;;;;8.87;8.17;;;;;;;19.06;82.73;96591.59;5073074;28;20656;-60
2021/06/26 02:27:39;;;;;;;10.23;9.23;;;;;;;19.05;82.77;96591.88;5073201;28;20204;-60
2021/06/26 02:30:06;;;;;;;9.67;8.87;;;;;;;19.09;82.50;96591.06;5073040;28;20409;-60
2021/06/26 02:32:32;;;;;;;9.90;8.90;;;;;;;19.11;82.76;96590.78;5072740;28;20855;-60
2021/06/26 02:34:57;;;;;;;9.10;8.30;;;;;;;18.85;84.76;96591.94;5072859;28;20468;-59
2021/06/26 02:37:23;;;;;;;8.53;7.80;;;;;;;18.74;85.32;96603.69;5078865;28;20166;-60
2021/06/26 02:39:49;;;;;;;9.10;8.30;;;;;;;18.89;85.64;96599.13;5087011;28;20225;-60
2021/06/26 02:42:14;;;;;;;9.40;8.50;;;;;;;19.01;84.86;96598.81;5083598;28;20173;-60
2021/06/26 02:44:39;;;;;;;9.20;8.30;;;;;;;19.09;84.24;96587.59;5097074;28;20182;-60
2021/06/26 02:47:05;;;;;;;9.27;8.40;;;;;;;19.18;84.01;96592.09;5096849;28;20228;-60
2021/06/26 02:49:30;;;;;;;9.20;8.30;;;;;;;19.24;83.62;96595.53;5097066;28;20232;-60
2021/06/26 02:51:55;;;;;;;10.97;8.60;;;;;;;19.26;83.76;96590.69;5091453;28;20175;-60
2021/06/26 02:54:21;;;;;;;9.17;8.30;;;;;;;19.24;84.04;96588.31;5076485;28;20190;-60
2021/06/26 02:56:46;;;;;;;9.67;8.77;;;;;;;19.22;84.38;96581.69;5076440;28;20261;-60
2021/06/26 02:59:12;;;;;;;8.60;8.00;;;;;;;19.25;84.48;96581.94;5076600;28;20167;-61
2021/06/26 03:01:37;;;;;;;9.23;8.40;;;;;;;19.24;84.45;96579.53;5076046;28;20506;-62
2021/06/26 03:04:03;;;;;;;9.30;8.50;;;;;;;19.28;84.20;96583.22;5076303;28;20182;-61
2021/06/26 03:06:29;;;;;;;9.63;8.53;;;;;;;19.34;83.98;96579.50;5079062;28;20384;-61
2021/06/26 03:08:54;;;;;;;9.50;8.60;;;;;;;19.25;84.34;96581.13;5096597;28;20261;-61
2021/06/26 03:11:20;;;;;;;10.23;9.23;;;;;;;19.24;84.31;96582.22;5079817;28;20602;-61
2021/06/26 03:13:45;;;;;;;10.67;9.67;;;;;;;19.31;84.29;96580.06;5075793;28;20190;-61
2021/06/26 03:16:10;;;;;;;9.80;8.67;;;;;;;19.25;83.97;96581.13;5076364;28;20574;-61
2021/06/26 03:18:41;;;;;;;9.60;8.70;;;;;;;19.21;84.31;96577.41;5076250;28;20179;-61
2021/06/26 03:21:06;;;;;;;10.20;9.30;;;;;;;19.18;84.45;96567.31;5076019;28;20166;-61
2021/06/26 03:23:32;;;;;;;9.17;8.37;;;;;;;19.14;84.46;96566.25;5093670;28;20451;-61
2021/06/26 03:25:57;;;;;;;8.73;8.03;;;;;;;19.15;83.77;96567.88;5084246;28;20661;-61
2021/06/26 03:28:23;;;;;;;10.40;9.30;;;;;;;19.11;83.70;96569.47;5076145;28;20177;-61
2021/06/26 03:30:48;;;;;;;8.80;8.10;;;;;;;19.04;84.42;96571.66;5076011;28;20174;-62
2021/06/26 03:33:13;;;;;;;8.03;7.40;;;;;;;19.05;84.01;96575.88;5075369;28;20190;-61
2021/06/26 03:35:39;;;;;;;10.33;9.13;;;;;;;19.12;83.36;96579.06;5076079;28;20178;-61
2021/06/26 03:38:04;;;;;;;9.27;8.47;;;;;;;19.00;83.82;96575.91;5075686;28;20193;-61
2021/06/26 03:40:29;;;;;;;9.77;8.87;;;;;;;18.98;83.40;96580.72;5082605;28;20174;-61
2021/06/26 03:42:55;;;;;;;8.53;7.80;;;;;;;18.99;83.33;96588.44;5079587;28;20566;-61
2021/06/26 03:45:20;;;;;;;10.67;8.90;;;;;;;18.88;83.91;96578.88;5095976;28;20169;-61
2021/06/26 03:47:46;;;;;;;9.70;8.70;;;;;;;18.83;84.43;96575.44;5095742;28;20251;-61
2021/06/26 03:50:11;;;;;;;10.53;9.63;;;;;;;18.82;84.57;96572.00;5095803;28;20175;-61
2021/06/26 03:52:37;;;;;;;9.60;8.70;;;;;;;18.79;84.49;96574.41;5095063;28;20173;-61
2021/06/26 03:55:03;;;;;;;8.50;7.80;;;;;;;18.72;85.01;96576.53;5095663;28;20428;-61
2021/06/26 03:57:29;;;;;;;9.30;8.40;;;;;;;18.63;84.92;96572.84;5092602;28;20181;-61
2021/06/26 03:59:54;;;;;;;8.93;8.20;;;;;;;18.48;85.33;96577.16;5081170;28;20419;-61
2021/06/26 04:02:20;;;;;;;9.00;8.20;;;;;;;18.52;85.50;96585.38;5095178;28;20598;-61
2021/06/26 04:04:45;;;;;;;10.27;8.40;;;;;;;18.54;85.78;96593.09;5095391;28;20189;-61
2021/06/26 04:07:10;;;;;;;8.60;8.00;;;;;;;18.54;85.98;96588.59;5095535;28;20194;-61
2021/06/26 04:09:36;;;;;;;8.53;7.73;;;;;;;18.59;86.08;96590.44;5095464;28;20166;-61
2021/06/26 04:12:01;;;;;;;11.60;8.47;;;;;;;18.62;86.32;96587.22;5095043;28;20532;-62
2021/06/26 04:14:26;;;;;;;8.40;7.70;;;;;;;18.63;86.66;96589.63;5091173;28;20190;-61
2021/06/26 04:16:52;;;;;;;8.23;7.63;;;;;;;18.60;87.27;96592.03;5075163;28;20163;-61
2021/06/26 04:19:17;;;;;;;9.00;8.23;;;;;;;18.64;87.44;96593.09;5057025;28;20171;-61
2021/06/26 04:21:43;;;;;;;9.43;8.53;;;;;;;18.74;86.61;96596.50;5074562;28;20841;-61
2021/06/26 04:24:09;;;;;;;9.70;8.80;;;;;;;18.57;86.41;96601.34;5074752;28;20186;-61
2021/06/26 04:26:35;;;;;;;9.90;9.10;;;;;;;18.60;86.69;96594.69;5074988;28;20199;-61
2021/06/26 04:29:01;;;;;;;9.50;8.70;;;;;;;18.62;86.33;96590.69;5076842;28;20879;-61
2021/06/26 04:31:26;;;;;;;10.40;8.83;;;;;;;18.58;86.58;96591.50;5092378;28;20162;-62
2021/06/26 04:33:52;;;;;;;9.77;8.90;;;;;;;18.56;86.95;96591.78;5074771;28;20252;-61
2021/06/26 04:36:18;;;;;;;10.63;9.73;;;;;;;18.57;86.75;96592.56;5074856;28;20220;-61
2021/06/26 04:38:44;;;;;;;10.03;9.23;;;;;;;18.62;86.87;96587.22;5074686;28;20244;-61
2021/06/26 04:41:09;;;;;;;10.10;9.30;;;;;;;18.72;86.70;96588.00;5074562;28;20405;-61
2021/06/26 04:43:35;;;;;;;10.47;9.47;;;;;;;18.83;86.44;96581.56;5093098;28;20197;-61
2021/06/26 04:46:01;;;;;;;10.63;9.57;;;;;;;18.94;86.25;96585.00;5094568;28;20190;-61
2021/06/26 04:48:29;;;;;;;11.53;10.43;;;;;;;18.99;85.88;96583.09;5093809;28;20929;-61
2021/06/26 04:50:55;;;;;;;10.90;9.80;;;;;;;19.04;85.80;96588.41;5078645;28;20506;-61
2021/06/26 04:53:20;;;;;;;12.40;11.20;;;;;;;19.03;85.78;96586.81;5073917;28;20424;-62
2021/06/26 04:55:51;;;;;;;11.47;10.30;;;;;;;19.04;86.06;96593.72;5074314;28;20760;-61
2021/06/26 04:58:24;;;;;;;12.47;11.03;;;;;;;19.06;86.38;96593.47;5074373;28;20318;-61
2021/06/26 05:00:51;;;;;;;13.73;11.47;;;;;;;19.10;86.25;96589.19;5074281;28;20439;-61
2021/06/26 05:03:20;;;;;;;11.53;10.50;;;;;;;19.10;86.73;96589.19;5072926;28;20436;-62
2021/06/26 05:05:46;;;;;;;11.83;10.70;;;;;;;19.11;87.11;96591.56;5089924;28;20424;-61
2021/06/26 05:08:12;;;;;;;13.53;12.33;;;;;;;19.16;87.41;96583.56;5094355;28;20404;-61
2021/06/26 05:10:38;;;;;;;15.17;13.67;;;;;;;19.19;87.68;96575.03;5094413;28;20169;-61
2021/06/26 05:13:04;;;;;;;15.53;13.97;;;;;;;19.23;87.75;96578.75;5093599;28;20404;-61
2021/06/26 05:15:29;;;;;;;16.27;14.57;;;;;;;19.26;88.03;96583.50;5094197;28;20173;-61
2021/06/26 05:17:55;;;;;;;19.13;17.23;;;;;;;19.35;88.13;96586.41;5094073;28;20396;-60
2021/06/26 05:20:20;;;;;;;18.60;16.73;;;;;;;19.39;88.01;96579.47;5090681;28;20174;-61
2021/06/26 05:22:46;;;;;;;17.67;15.80;;;;;;;19.48;88.26;96586.63;5093629;28;20245;-61
2021/06/26 05:25:12;;;;;;;17.03;15.23;;;;;;;19.54;88.55;96587.38;5094023;28;20214;-61
2021/06/26 05:27:37;;;;;;;18.50;16.70;;;;;;;19.62;88.61;96592.13;5093784;28;20224;-61
2021/06/26 05:30:04;;;;;;;16.40;14.70;;;;;;;19.70;88.53;96594.22;5094339;28;20418;-61
2021/06/26 05:32:29;;;;;;;15.83;14.17;;;;;;;19.76;88.67;96590.44;5093540;28;20215;-61
2021/06/26 05:34:55;;;;;;;18.93;17.03;;;;;;;19.83;88.91;96593.59;5080254;28;20445;-61
2021/06/26 05:37:20;;;;;;;19.33;17.20;;;;;;;19.96;88.81;96594.81;5073706;28;20190;-62
2021/06/26 05:39:46;;;;;;;18.47;16.53;;;;;;;20.02;88.61;96591.81;5073620;28;20179;-61
2021/06/26 05:42:11;;;;;;;19.23;17.23;;;;;;;20.01;88.44;96594.78;5080444;28;20624;-61
2021/06/26 05:44:36;;;;;;;19.27;17.37;;;;;;;20.11;88.52;96590.16;5093552;28;20182;-60
2021/06/26 05:47:02;;;;;;;16.90;15.20;;;;;;;20.22;87.93;96582.88;5093640;28;20552;-62
2021/06/26 05:49:28;;;;;;;17.80;16.00;;;;;;;20.28;88.04;96592.44;5082094;28;20240;-62
2021/06/26 05:51:53;;;;;;;21.00;18.90;;;;;;;20.30;87.49;96593.75;5073147;28;20250;-62
2021/06/26 05:54:18;;;;;;;18.83;16.83;;;;;;;20.42;87.38;96588.03;5073445;28;20675;-61
2021/06/26 05:56:44;;;;;;;19.13;17.30;;;;;;;20.55;86.82;96602.59;5073581;28;20159;-62
2021/06/26 05:59:09;;;;;;;19.53;17.53;;;;;;;20.63;86.26;96596.63;5074053;28;20251;-61
2021/06/26 06:01:35;;;;;;;22.20;19.73;;;;;;;20.55;85.77;96599.91;5073038;28;20178;-62
2021/06/26 06:04:00;;;;;;;18.53;16.70;;;;;;;20.67;86.10;96593.13;5080526;28;20651;-61
2021/06/26 06:06:25;;;;;;;20.67;18.57;;;;;;;20.79;85.69;96595.41;5077684;28;20190;-61
2021/06/26 06:08:51;;;;;;;18.87;17.07;;;;;;;20.78;85.70;96602.59;5093669;28;20173;-62
2021/06/26 06:11:16;;;;;;;18.07;16.30;;;;;;;20.86;85.89;96593.19;5093393;28;20158;-61
2021/06/26 06:13:41;;;;;;;17.93;16.20;;;;;;;20.95;85.84;96602.97;5092857;28;20296;-61
2021/06/26 06:16:07;;;;;;;18.83;16.83;;;;;;;20.99;85.82;96592.50;5095540;28;20173;-61
2021/06/26 06:18:32;;;;;;;18.40;16.60;;;;;;;20.98;85.34;96593.59;5097578;28;20218;-61
2021/06/26 06:20:58;;;;;;;18.70;16.90;;;;;;;21.07;84.79;96597.25;5097561;28;20166;-61
2021/06/26 06:23:23;;;;;;;16.00;14.43;;;;;;;21.14;84.18;96597.69;5096981;28;20182;-61
2021/06/26 06:25:48;;;;;;;16.67;14.93;;;;;;;21.27;84.26;96605.03;5097260;28;20167;-59
2021/06/26 06:28:14;;;;;;;16.10;14.60;;;;;;;21.37;83.73;96608.34;5097476;28;20678;-61
2021/06/26 06:30:40;;;;;;;14.07;12.80;;;;;;;21.56;83.49;96604.91;5091001;28;20257;-61
2021/06/26 06:33:06;;;;;;;17.50;15.80;;;;;;;21.57;82.73;96607.28;5076529;28;20247;-61
2021/06/26 06:35:32;;;;;;;16.93;15.23;;;;;;;21.56;82.12;96610.25;5076966;28;20166;-61
2021/06/26 06:37:58;;;;;;;16.40;14.80;;;;;;;21.65;83.10;96606.59;5076903;28;20448;-61
2021/06/26 06:40:24;;;;;;;17.20;15.40;;;;;;;21.75;82.63;96606.47;5076718;28;20412;-61
2021/06/26 06:42:50;;;;;;;17.10;15.37;;;;;;;21.70;82.08;96611.91;5089015;28;20412;-61
2021/06/26 06:45:16;;;;;;;17.03;15.47;;;;;;;21.58;82.99;96606.19;5092147;28;20177;-61
2021/06/26 06:47:42;;;;;;;15.10;13.73;;;;;;;21.70;82.76;96603.88;5076670;28;20205;-61
2021/06/26 06:50:09;;;;;;;16.17;14.67;;;;;;;21.78;82.06;96602.41;5076654;28;20489;-61
2021/06/26 06:52:36;;;;;;;17.13;15.43;;;;;;;21.73;81.79;96608.66;5076272;28;20405;-61
2021/06/26 06:55:02;;;;;;;15.90;14.50;;;;;;;21.68;81.24;96608.72;5076667;28;20421;-62
2021/06/26 06:57:28;;;;;;;19.37;17.37;;;;;;;21.59;81.20;96612.34;5076418;28;20404;-61
2021/06/26 06:59:54;;;;;;;17.23;15.53;;;;;;;21.57;81.88;96617.16;5080019;28;20920;-61
2021/06/26 07:02:20;;;;;;;17.13;15.33;;;;;;;21.54;82.19;96613.22;5096474;28;20162;-61
2021/06/26 07:04:46;;;;;;;18.43;16.67;;;;;;;21.59;82.51;96606.97;5096649;28;20725;-60
2021/06/26 07:07:12;;;;;;;17.03;15.33;;;;;;;21.68;82.25;96608.72;5096669;28;20451;-61
2021/06/26 07:09:37;;;;;;;17.70;15.90;;;;;;;21.68;82.56;96607.91;5096547;28;20408;-61
2021/06/26 07:12:03;;;;;;;16.67;15.00;;;;;;;21.69;82.44;96604.94;5096159;28;20712;-61
2021/06/26 07:14:28;;;;;;;18.20;16.53;;;;;;;21.80;82.28;96600.28;5093868;28;20210;-62
2021/06/26 07:16:53;;;;;;;16.83;15.30;;;;;;;21.88;82.20;96599.63;5091313;28;20166;-62
2021/06/26 07:19:19;;;;;;;16.17;14.67;;;;;;;21.94;82.60;96598.47;5096245;28;20167;-61
2021/06/26 07:21:44;;;;;;;18.10;16.30;;;;;;;22.06;82.21;96604.97;5080416;28;20209;-62
2021/06/26 07:24:10;;;;;;;15.70;14.20;;;;;;;22.21;82.09;96606.59;5075977;28;20684;-62
2021/06/26 07:26:36;;;;;;;16.33;14.83;;;;;;;22.30;82.04;96602.16;5075058;28;20677;-62
2021/06/26 07:29:01;;;;;;;16.10;14.60;;;;;;;22.37;80.52;96602.56;5075940;28;20171;-62
2021/06/26 07:31:27;;;;;;;15.50;14.10;;;;;;;22.48;80.56;96604.75;5057736;28;20167;-63
2021/06/26 07:33:52;;;;;;;17.97;16.27;;;;;;;22.62;80.35;96606.72;5075668;28;20222;-67
2021/06/26 07:36:18;;;;;;;16.53;15.03;;;;;;;22.64;78.65;96604.53;5089554;28;20178;-67
2021/06/26 07:38:43;;;;;;;17.10;13.97;;;;;;;22.57;76.83;96604.13;5078678;28;20266;-63
2021/06/26 07:41:09;;;;;;;19.40;14.63;;;;;;;22.57;76.46;96594.22;5075778;28;20240;-68
2021/06/26 07:43:35;;;;;;;15.47;13.90;;;;;;;22.78;77.03;96608.00;5094044;28;20682;-66
2021/06/26 07:46:01;;;;;;;12.87;11.67;;;;;;;22.98;75.04;96607.63;5095978;28;20165;-63
2021/06/26 07:48:28;;;;;;;15.00;13.60;;;;;;;23.01;75.08;96597.09;5077693;28;20405;-67
2021/06/26 07:50:53;;;;;;;14.40;13.20;;;;;;;23.09;74.58;96604.47;5087676;28;20761;-69
2021/06/26 07:53:19;;;;;;;16.10;14.60;;;;;;;23.24;74.21;96601.47;5075051;28;20531;-67
2021/06/26 07:55:51;;;;;;;16.60;15.00;;;;;;;23.40;74.61;96597.41;5072738;28;20195;-65
2021/06/26 07:58:21;;;;;;;13.97;12.50;;;;;;;23.51;73.82;96592.63;5071883;28;20648;-66
2021/06/26 08:00:47;;;;;;;13.60;12.40;;;;;;;23.42;72.95;96599.78;5071888;28;20450;-64
2021/06/26 08:03:13;;;;;;;13.33;12.13;;;;;;;23.50;71.53;96587.56;5071364;28;20498;-63
2021/06/26 08:05:39;;;;;;;14.10;12.80;;;;;;;23.60;72.54;96577.38;5079288;28;20424;-62
2021/06/26 08:08:04;;;;;;;14.70;13.50;;;;;;;23.61;73.24;96581.63;5091398;28;20451;-66
2021/06/26 08:10:29;;;;;;;14.30;13.10;;;;;;;23.58;70.75;96581.44;5091759;28;20220;-64
2021/06/26 08:12:55;;;;;;;13.90;12.70;;;;;;;23.74;70.94;96578.13;5091347;28;20189;-66
2021/06/26 08:15:20;;;;;;;13.53;12.33;;;;;;;23.88;71.82;96573.50;5073596;28;20167;-63
2021/06/26 08:17:46;;;;;;;15.87;12.97;;;;;;;23.92;71.74;96574.47;5073765;28;20170;-63
2021/06/26 08:20:11;;;;;;;14.67;13.40;;;;;;;23.99;71.69;96577.53;5084912;28;20204;-66
2021/06/26 08:22:38;;;;;;;12.60;11.50;;;;;;;24.14;71.48;96573.72;5089404;28;20234;-64
2021/06/26 08:25:04;;;;;;;13.83;12.53;;;;;;;24.21;68.55;96574.06;5071560;28;20197;-66
2021/06/26 08:27:30;;;;;;;12.70;11.60;;;;;;;24.29;67.93;96574.13;5071303;28;20495;-64
2021/06/26 08:29:55;;;;;;;12.67;11.70;;;;;;;24.21;70.18;96577.56;5071296;28;20452;-65
2021/06/26 08:32:20;;;;;;;12.67;11.37;;;;;;;24.32;68.71;96565.44;5070383;28;20185;-61
2021/06/26 08:34:46;;;;;;;12.07;11.03;;;;;;;24.39;67.87;96565.81;5073257;28;20198;-64
2021/06/26 08:37:11;;;;;;;13.60;12.40;;;;;;;24.53;67.41;96570.31;5074771;28;20246;-60
2021/06/26 08:39:36;;;;;;;12.47;11.17;;;;;;;24.64;67.26;96566.25;5090664;28;20197;-60
2021/06/26 08:42:03;;;;;;;13.80;12.53;;;;;;;24.75;67.94;96564.91;5094042;28;20170;-60
2021/06/26 08:44:28;;;;;;;12.33;11.33;;;;;;;24.78;66.48;96567.75;5094834;28;20190;-64
2021/06/26 08:46:55;;;;;;;13.03;11.93;;;;;;;24.89;67.89;96573.66;5094737;28;20444;-64
2021/06/26 08:49:20;;;;;;;14.67;13.20;;;;;;;24.77;66.79;96568.06;5094754;28;20177;-64
2021/06/26 08:51:46;;;;;;;12.43;11.27;;;;;;;24.99;66.74;96567.97;5086011;28;20420;-64
2021/06/26 08:54:16;;;;;;;10.50;9.60;;;;;;;25.14;65.80;96562.16;5094875;28;20205;-64
2021/06/26 08:56:44;;;;;;;11.80;10.80;;;;;;;25.20;63.78;96564.38;5094726;28;20188;-60
2021/06/26 08:59:10;;;;;;;13.87;12.70;;;;;;;25.26;65.97;96565.03;5094945;28;20412;-64
2021/06/26 09:01:38;;;;;;;12.97;11.67;;;;;;;25.37;62.72;96566.31;5094026;28;20507;-60
2021/06/26 09:04:05;;;;;;;11.97;10.97;;;;;;;25.18;61.77;96560.44;5093775;28;20217;-60
2021/06/26 09:06:34;;;;;;;12.27;11.27;;;;;;;25.19;64.67;96560.13;5092487;28;20463;-58
2021/06/26 09:09:01;;;;;;;11.57;10.67;;;;;;;25.24;62.58;96553.78;5076427;28;20447;-59
2021/06/26 09:11:26;;;;;;;12.03;11.03;;;;;;;25.25;62.67;96556.19;5093849;28;20416;-63
2021/06/26 09:13:52;;;;;;;10.60;9.80;;;;;;;25.36;63.05;96556.69;5093174;28;20853;-63
2021/06/26 09:16:17;;;;;;;11.80;10.80;;;;;;;25.16;64.78;96559.97;5094100;28;20511;-64
2021/06/26 09:18:44;;;;;;;12.53;11.43;;;;;;;25.09;63.38;96559.63;5094065;28;20172;-61
2021/06/26 09:21:33;;;;;;;11.20;10.10;;;;;;;25.14;64.47;96559.47;5093904;28;20220;-63
2021/06/26 09:24:05;;;;;;;11.83;10.93;;;;;;;25.17;62.59;96558.84;5093889;28;20795;-60
2021/06/26 09:26:35;;;;;;;12.30;11.07;;;;;;;25.22;63.28;96561.41;5093392;28;20493;-64
2021/06/26 09:29:11;;;;;;;10.60;9.80;;;;;;;25.30;62.98;96552.53;5087314;28;20427;-60
2021/06/26 09:31:49;;;;;;;11.73;10.83;;;;;;;25.42;62.84;96556.22;5076766;28;20447;-64
2021/06/26 09:34:14;;;;;;;10.37;9.57;;;;;;;25.43;61.28;96557.84;5073599;28;20862;-60
2021/06/26 09:36:40;;;;;;;10.10;9.40;;;;;;;25.49;63.42;96554.97;5080911;28;20422;-60
2021/06/26 09:39:11;;;;;;;11.10;10.17;;;;;;;25.48;62.50;96548.78;5093567;28;20185;-60
2021/06/26 09:41:39;;;;;;;10.40;9.50;;;;;;;25.45;64.90;96544.81;5093680;28;20177;-61
2021/06/26 09:44:12;;;;;;;10.20;9.40;;;;;;;25.68;62.97;96539.31;5093725;28;20511;-64
2021/06/26 09:46:46;;;;;;;10.40;9.60;;;;;;;25.92;62.10;96542.31;5093519;28;20505;-64
2021/06/26 09:49:12;;;;;;;9.60;8.80;;;;;;;25.95;59.50;96541.66;5093314;28;20409;-60
2021/06/26 09:51:38;;;;;;;10.87;9.97;;;;;;;26.10;60.02;96542.00;5071683;28;20434;-61
2021/06/26 09:54:05;;;;;;;10.13;9.33;;;;;;;26.09;59.16;96540.41;5093472;28;20197;-60
2021/06/26 09:56:47;;;;;;;10.97;10.07;;;;;;;26.23;61.49;96534.84;5093464;28;20646;-64
2021/06/26 09:59:14;;;;;;;10.43;9.70;;;;;;;26.24;57.91;96536.41;5093277;28;20404;-64
2021/06/26 10:01:46;;;;;;;10.20;9.40;;;;;;;26.30;58.81;96548.59;5093184;28;20416;-64
2021/06/26 10:04:14;;;;;;;9.10;8.40;;;;;;;26.38;59.00;96545.09;5093510;28;20427;-60
2021/06/26 10:06:40;;;;;;;9.10;8.50;;;;;;;26.21;57.12;96532.47;5081953;28;20459;-65
2021/06/26 10:09:06;;;;;;;9.50;8.60;;;;;;;26.39;57.53;96530.50;5073153;28;20444;-60
2021/06/26 10:11:35;;;;;;;9.13;8.53;;;;;;;26.41;57.63;96525.59;5073134;28;20425;-64
2021/06/26 10:14:04;;;;;;;8.80;8.20;;;;;;;26.25;58.91;96528.00;5073005;28;20218;-60
2021/06/26 10:16:31;;;;;;;8.50;7.90;;;;;;;26.30;58.08;96521.66;5073285;28;20439;-60
2021/06/26 10:19:00;;;;;;;8.37;7.77;;;;;;;26.31;58.41;96520.53;5073072;28;20492;-60
2021/06/26 10:21:28;;;;;;;8.47;7.87;;;;;;;26.43;57.74;96521.44;5084010;28;20922;-64
2021/06/26 10:23:55;;;;;;;8.20;7.60;;;;;;;26.55;57.13;96520.78;5067897;28;20441;-60
2021/06/26 10:26:24;;;;;;;9.30;8.37;;;;;;;26.70;60.67;96527.56;5073063;28;20444;-61
2021/06/26 10:29:00;;;;;;;7.63;7.13;;;;;;;26.84;56.86;96525.44;5073139;28;20500;-65
2021/06/26 10:31:39;;;;;;;8.53;7.97;;;;;;;26.84;54.95;96520.03;5072765;28;20405;-64
2021/06/26 10:34:16;;;;;;;8.87;7.97;;;;;;;26.58;54.59;96522.81;5072708;28;20429;-61
2021/06/26 10:36:50;;;;;;;7.80;7.20;;;;;;;26.77;52.91;96525.16;5080039;28;20419;-64
2021/06/26 10:39:20;;;;;;;7.77;7.17;;;;;;;26.80;54.90;96513.69;5079653;28;20439;-61
2021/06/26 10:42:07;;;;;;;7.70;7.20;;;;;;;26.82;54.73;96511.47;5092712;28;20420;-64
2021/06/26 10:44:42;;;;;;;7.73;7.17;;;;;;;26.86;53.35;96515.09;5092902;28;20432;-64
2021/06/26 10:47:08;;;;;;;8.10;7.50;;;;;;;26.90;54.61;96511.44;5074644;28;20443;-64
2021/06/26 10:49:34;;;;;;;8.20;7.50;;;;;;;26.66;56.50;96511.22;5092847;28;20425;-64
2021/06/26 10:52:08;;;;;;;8.40;7.70;;;;;;;26.87;55.70;96511.31;5092319;28;20404;-60
2021/06/26 10:54:33;;;;;;;9.13;8.53;;;;;;;27.18;54.93;96509.84;5081120;28;20199;-64
2021/06/26 10:57:04;;;;;;;9.03;8.23;;;;;;;27.31;56.28;96511.53;5072441;28;20409;-60
2021/06/26 10:59:29;;;;;;;9.73;9.03;;;;;;;27.20;55.77;96509.50;5083358;28;20217;-60
2021/06/26 11:02:00;;;;;;;9.93;9.23;;;;;;;27.44;53.62;96504.28;5091022;28;20545;-64
2021/06/26 11:04:26;;;;;;;8.60;8.00;;;;;;;27.35;53.31;96498.97;5086315;28;20198;-65
2021/06/26 11:07:06;;;;;;;8.60;8.00;;;;;;;27.60;55.70;96499.88;5081832;28;20456;-64
2021/06/26 11:09:40;;;;;;;8.40;7.80;;;;;;;27.57;53.15;96500.53;5078646;28;20807;-61
2021/06/26 11:12:17;;;;;;;8.30;7.70;;;;;;;27.68;54.00;96500.91;5077703;28;20408;-64
2021/06/26 11:14:54;;;;;;;7.80;7.30;;;;;;;27.65;50.55;96502.34;5063527;28;20969;-61
2021/06/26 11:17:23;;;;;;;7.93;7.33;;;;;;;27.63;52.77;96506.53;5057872;28;20413;-63
2021/06/26 11:19:50;;;;;;;7.53;6.83;;;;;;;27.70;52.51;96498.69;5057951;28;20467;-65
2021/06/26 11:22:16;;;;;;;7.80;7.20;;;;;;;27.92;51.62;96503.72;5082398;28;20883;-65